sensor_id;sensor_type;location;lat;lon;timestamp;temperature;humidity
18575;DHT22;9417;16.484;102.872;2022-11-21T00:00:56;24.40;94.70
18575;DHT22;9417;16.484;102.872;2022-11-21T00:03:03;24.40;94.40
18575;DHT22;9417;16.484;102.872;2022-11-21T00:05:10;24.40;94.30
18575;DHT22;9417;16.484;102.872;2022-11-21T00:07:17;24.40;94.40
18575;DHT22;9417;16.484;102.872;2022-11-21T00:09:24;24.50;94.40
18575;DHT22;9417;16.484;102.872;2022-11-21T00:11:31;24.50;94.50
18575;DHT22;9417;16.484;102.872;2022-11-21T00:13:39;24.60;94.60
18575;DHT22;9417;16.484;102.872;2022-11-21T00:15:46;24.60;94.60
18575;DHT22;9417;16.484;102.872;2022-11-21T00:17:55;24.70;94.40
18575;DHT22;9417;16.484;102.872;2022-11-21T00:20:03;24.80;93.50
18575;DHT22;9417;16.484;102.872;2022-11-21T00:22:10;24.80;93.50
18575;DHT22;9417;16.484;102.872;2022-11-21T00:24:17;24.90;92.40
18575;DHT22;9417;16.484;102.872;2022-11-21T00:26:24;24.90;91.50
18575;DHT22;9417;16.484;102.872;2022-11-21T00:28:32;24.90;90.80
18575;DHT22;9417;16.484;102.872;2022-11-21T00:30:39;25.00;89.70
18575;DHT22;9417;16.484;102.872;2022-11-21T00:32:46;25.10;89.80
18575;DHT22;9417;16.484;102.872;2022-11-21T00:34:55;25.10;89.90
18575;DHT22;9417;16.484;102.872;2022-11-21T00:37:02;25.20;89.30
18575;DHT22;9417;16.484;102.872;2022-11-21T00:39:09;25.20;89.10
18575;DHT22;9417;16.484;102.872;2022-11-21T00:41:16;25.30;88.20
18575;DHT22;9417;16.484;102.872;2022-11-21T00:43:23;25.30;87.00
18575;DHT22;9417;16.484;102.872;2022-11-21T00:45:31;25.30;87.00
18575;DHT22;9417;16.484;102.872;2022-11-21T00:47:38;25.30;86.80
18575;DHT22;9417;16.484;102.872;2022-11-21T00:49:45;25.30;86.20
18575;DHT22;9417;16.484;102.872;2022-11-21T00:51:54;25.30;86.50
18575;DHT22;9417;16.484;102.872;2022-11-21T00:54:01;25.30;86.80
18575;DHT22;9417;16.484;102.872;2022-11-21T00:56:11;25.40;87.20
18575;DHT22;9417;16.484;102.872;2022-11-21T00:58:18;25.40;86.70
18575;DHT22;9417;16.484;102.872;2022-11-21T01:00:25;25.40;85.90
18575;DHT22;9417;16.484;102.872;2022-11-21T01:02:32;25.50;85.80
18575;DHT22;9417;16.484;102.872;2022-11-21T01:04:41;25.50;85.70
18575;DHT22;9417;16.484;102.872;2022-11-21T01:06:48;25.60;85.70
18575;DHT22;9417;16.484;102.872;2022-11-21T01:08:57;25.70;84.60
18575;DHT22;9417;16.484;102.872;2022-11-21T01:11:05;25.70;84.40
18575;DHT22;9417;16.484;102.872;2022-11-21T01:13:12;25.80;83.30
18575;DHT22;9417;16.484;102.872;2022-11-21T01:15:19;25.90;83.00
18575;DHT22;9417;16.484;102.872;2022-11-21T01:17:26;26.00;81.90
18575;DHT22;9417;16.484;102.872;2022-11-21T01:19:33;26.10;82.50
18575;DHT22;9417;16.484;102.872;2022-11-21T01:21:40;26.20;81.70
18575;DHT22;9417;16.484;102.872;2022-11-21T01:23:48;26.30;82.10
18575;DHT22;9417;16.484;102.872;2022-11-21T01:26:00;26.30;81.90
18575;DHT22;9417;16.484;102.872;2022-11-21T01:28:08;26.40;81.40
18575;DHT22;9417;16.484;102.872;2022-11-21T01:30:15;26.50;81.70
18575;DHT22;9417;16.484;102.872;2022-11-21T01:32:22;26.60;79.80
18575;DHT22;9417;16.484;102.872;2022-11-21T01:34:29;26.70;79.70
18575;DHT22;9417;16.484;102.872;2022-11-21T01:36:36;26.80;79.40
18575;DHT22;9417;16.484;102.872;2022-11-21T01:38:45;26.90;74.80
18575;DHT22;9417;16.484;102.872;2022-11-21T01:40:52;27.00;75.40
18575;DHT22;9417;16.484;102.872;2022-11-21T01:43:08;27.10;75.20
18575;DHT22;9417;16.484;102.872;2022-11-21T01:45:50;27.20;74.80
18575;DHT22;9417;16.484;102.872;2022-11-21T01:47:59;27.30;73.00
18575;DHT22;9417;16.484;102.872;2022-11-21T01:50:07;27.40;73.20
18575;DHT22;9417;16.484;102.872;2022-11-21T01:52:19;27.50;73.30
18575;DHT22;9417;16.484;102.872;2022-11-21T01:54:30;27.50;72.60
18575;DHT22;9417;16.484;102.872;2022-11-21T01:56:41;27.50;72.40
18575;DHT22;9417;16.484;102.872;2022-11-21T01:58:52;27.60;72.20
18575;DHT22;9417;16.484;102.872;2022-11-21T02:01:01;27.70;70.20
18575;DHT22;9417;16.484;102.872;2022-11-21T02:03:11;27.70;72.00
18575;DHT22;9417;16.484;102.872;2022-11-21T02:05:21;27.80;71.70
18575;DHT22;9417;16.484;102.872;2022-11-21T02:07:31;27.90;71.10
18575;DHT22;9417;16.484;102.872;2022-11-21T02:09:42;28.00;70.00
18575;DHT22;9417;16.484;102.872;2022-11-21T02:11:53;27.90;70.60
18575;DHT22;9417;16.484;102.872;2022-11-21T02:14:03;28.00;70.40
18575;DHT22;9417;16.484;102.872;2022-11-21T02:16:11;28.00;71.10
18575;DHT22;9417;16.484;102.872;2022-11-21T02:18:18;28.10;70.80
18575;DHT22;9417;16.484;102.872;2022-11-21T02:20:26;28.10;70.70
18575;DHT22;9417;16.484;102.872;2022-11-21T02:22:40;28.10;70.80
18575;DHT22;9417;16.484;102.872;2022-11-21T02:25:01;28.10;70.50
18575;DHT22;9417;16.484;102.872;2022-11-21T02:27:09;28.00;71.10
18575;DHT22;9417;16.484;102.872;2022-11-21T02:29:16;28.00;70.90
18575;DHT22;9417;16.484;102.872;2022-11-21T02:31:24;28.10;71.30
18575;DHT22;9417;16.484;102.872;2022-11-21T02:33:31;28.10;70.00
18575;DHT22;9417;16.484;102.872;2022-11-21T02:35:38;28.10;69.80
18575;DHT22;9417;16.484;102.872;2022-11-21T02:37:47;28.10;69.50
18575;DHT22;9417;16.484;102.872;2022-11-21T02:40:00;28.20;69.50
18575;DHT22;9417;16.484;102.872;2022-11-21T02:42:11;28.20;69.40
18575;DHT22;9417;16.484;102.872;2022-11-21T02:44:24;28.10;70.20
18575;DHT22;9417;16.484;102.872;2022-11-21T02:46:32;28.10;70.00
18575;DHT22;9417;16.484;102.872;2022-11-21T02:48:39;28.10;69.20
18575;DHT22;9417;16.484;102.872;2022-11-21T02:50:47;28.20;68.70
18575;DHT22;9417;16.484;102.872;2022-11-21T02:52:54;28.40;68.60
18575;DHT22;9417;16.484;102.872;2022-11-21T02:55:03;28.50;67.70
18575;DHT22;9417;16.484;102.872;2022-11-21T02:57:11;28.60;68.00
18575;DHT22;9417;16.484;102.872;2022-11-21T02:59:18;28.50;68.50
18575;DHT22;9417;16.484;102.872;2022-11-21T03:01:25;28.50;68.20
18575;DHT22;9417;16.484;102.872;2022-11-21T03:03:32;28.40;67.00
18575;DHT22;9417;16.484;102.872;2022-11-21T03:05:39;28.30;67.50
18575;DHT22;9417;16.484;102.872;2022-11-21T03:07:47;28.30;68.20
18575;DHT22;9417;16.484;102.872;2022-11-21T03:09:54;28.40;67.80
18575;DHT22;9417;16.484;102.872;2022-11-21T03:12:08;28.40;68.10
18575;DHT22;9417;16.484;102.872;2022-11-21T03:14:15;28.60;67.00
18575;DHT22;9417;16.484;102.872;2022-11-21T03:16:22;28.60;67.30
18575;DHT22;9417;16.484;102.872;2022-11-21T03:18:29;28.70;65.90
18575;DHT22;9417;16.484;102.872;2022-11-21T03:20:36;28.90;64.90
18575;DHT22;9417;16.484;102.872;2022-11-21T03:22:44;29.20;65.30
18575;DHT22;9417;16.484;102.872;2022-11-21T03:24:51;29.30;65.80
18575;DHT22;9417;16.484;102.872;2022-11-21T03:26:58;29.40;65.40
18575;DHT22;9417;16.484;102.872;2022-11-21T03:29:07;29.40;63.60
18575;DHT22;9417;16.484;102.872;2022-11-21T03:31:14;29.40;63.00
18575;DHT22;9417;16.484;102.872;2022-11-21T03:33:21;29.50;64.10
18575;DHT22;9417;16.484;102.872;2022-11-21T03:35:28;29.50;62.90
18575;DHT22;9417;16.484;102.872;2022-11-21T03:37:35;29.40;63.60
18575;DHT22;9417;16.484;102.872;2022-11-21T03:39:42;29.50;64.00
18575;DHT22;9417;16.484;102.872;2022-11-21T03:41:50;29.60;64.40
18575;DHT22;9417;16.484;102.872;2022-11-21T03:43:57;29.70;64.20
18575;DHT22;9417;16.484;102.872;2022-11-21T03:46:06;29.70;64.30
18575;DHT22;9417;16.484;102.872;2022-11-21T03:48:14;29.70;63.80
18575;DHT22;9417;16.484;102.872;2022-11-21T03:50:21;29.80;63.80
18575;DHT22;9417;16.484;102.872;2022-11-21T03:52:28;29.80;63.00
18575;DHT22;9417;16.484;102.872;2022-11-21T03:54:35;29.80;63.00
18575;DHT22;9417;16.484;102.872;2022-11-21T03:56:42;29.90;62.90
18575;DHT22;9417;16.484;102.872;2022-11-21T03:58:50;30.00;60.80
18575;DHT22;9417;16.484;102.872;2022-11-21T04:00:57;29.90;59.20
18575;DHT22;9417;16.484;102.872;2022-11-21T04:03:06;30.00;60.80
18575;DHT22;9417;16.484;102.872;2022-11-21T04:05:13;30.10;60.80
18575;DHT22;9417;16.484;102.872;2022-11-21T04:07:20;30.10;60.50
18575;DHT22;9417;16.484;102.872;2022-11-21T04:09:27;30.10;60.20
18575;DHT22;9417;16.484;102.872;2022-11-21T04:11:35;30.10;59.70
18575;DHT22;9417;16.484;102.872;2022-11-21T04:13:42;30.20;60.10
18575;DHT22;9417;16.484;102.872;2022-11-21T04:15:49;30.20;60.20
18575;DHT22;9417;16.484;102.872;2022-11-21T04:17:56;30.10;60.60
18575;DHT22;9417;16.484;102.872;2022-11-21T04:20:05;30.10;61.00
18575;DHT22;9417;16.484;102.872;2022-11-21T04:22:13;30.10;60.70
18575;DHT22;9417;16.484;102.872;2022-11-21T04:24:21;30.10;59.00
18575;DHT22;9417;16.484;102.872;2022-11-21T04:26:29;30.20;59.20
18575;DHT22;9417;16.484;102.872;2022-11-21T04:28:36;30.20;59.80
18575;DHT22;9417;16.484;102.872;2022-11-21T04:30:43;30.20;60.10
18575;DHT22;9417;16.484;102.872;2022-11-21T04:32:51;30.20;57.70
18575;DHT22;9417;16.484;102.872;2022-11-21T04:34:58;30.10;57.00
18575;DHT22;9417;16.484;102.872;2022-11-21T04:37:07;30.10;57.70
18575;DHT22;9417;16.484;102.872;2022-11-21T04:39:14;30.20;57.30
18575;DHT22;9417;16.484;102.872;2022-11-21T04:41:21;30.30;56.40
18575;DHT22;9417;16.484;102.872;2022-11-21T04:43:28;30.40;57.40
18575;DHT22;9417;16.484;102.872;2022-11-21T04:45:36;30.50;57.50
18575;DHT22;9417;16.484;102.872;2022-11-21T04:47:44;30.60;57.80
18575;DHT22;9417;16.484;102.872;2022-11-21T04:49:53;30.60;58.00
18575;DHT22;9417;16.484;102.872;2022-11-21T04:52:00;30.60;58.60
18575;DHT22;9417;16.484;102.872;2022-11-21T04:54:10;30.60;58.60
18575;DHT22;9417;16.484;102.872;2022-11-21T04:56:18;30.50;56.90
18575;DHT22;9417;16.484;102.872;2022-11-21T04:58:26;30.40;56.20
18575;DHT22;9417;16.484;102.872;2022-11-21T05:00:33;30.40;56.60
18575;DHT22;9417;16.484;102.872;2022-11-21T05:02:40;30.40;57.40
18575;DHT22;9417;16.484;102.872;2022-11-21T05:04:47;30.60;57.50
18575;DHT22;9417;16.484;102.872;2022-11-21T05:06:54;30.60;56.00
18575;DHT22;9417;16.484;102.872;2022-11-21T05:09:01;30.60;56.70
18575;DHT22;9417;16.484;102.872;2022-11-21T05:11:10;30.80;55.60
18575;DHT22;9417;16.484;102.872;2022-11-21T05:13:34;30.90;55.90
18575;DHT22;9417;16.484;102.872;2022-11-21T05:15:41;31.10;55.60
18575;DHT22;9417;16.484;102.872;2022-11-21T05:17:48;31.20;54.90
18575;DHT22;9417;16.484;102.872;2022-11-21T05:19:55;31.30;55.30
18575;DHT22;9417;16.484;102.872;2022-11-21T05:22:02;31.30;54.30
18575;DHT22;9417;16.484;102.872;2022-11-21T05:24:10;31.40;54.40
18575;DHT22;9417;16.484;102.872;2022-11-21T05:26:19;31.40;53.80
18575;DHT22;9417;16.484;102.872;2022-11-21T05:28:26;31.50;53.30
18575;DHT22;9417;16.484;102.872;2022-11-21T05:30:33;31.50;54.00
18575;DHT22;9417;16.484;102.872;2022-11-21T05:32:42;31.60;53.70
18575;DHT22;9417;16.484;102.872;2022-11-21T05:34:49;31.70;53.90
18575;DHT22;9417;16.484;102.872;2022-11-21T05:36:57;31.70;53.20
18575;DHT22;9417;16.484;102.872;2022-11-21T05:39:04;31.70;53.40
18575;DHT22;9417;16.484;102.872;2022-11-21T05:41:11;31.80;54.00
18575;DHT22;9417;16.484;102.872;2022-11-21T05:43:20;31.80;53.40
18575;DHT22;9417;16.484;102.872;2022-11-21T05:45:43;31.90;53.00
18575;DHT22;9417;16.484;102.872;2022-11-21T05:47:50;31.90;52.10
18575;DHT22;9417;16.484;102.872;2022-11-21T05:49:57;32.00;51.70
18575;DHT22;9417;16.484;102.872;2022-11-21T05:52:05;32.10;52.10
18575;DHT22;9417;16.484;102.872;2022-11-21T05:54:13;32.10;52.90
18575;DHT22;9417;16.484;102.872;2022-11-21T05:56:21;32.10;50.40
18575;DHT22;9417;16.484;102.872;2022-11-21T05:58:30;32.10;50.40
18575;DHT22;9417;16.484;102.872;2022-11-21T06:00:38;32.10;51.10
18575;DHT22;9417;16.484;102.872;2022-11-21T06:02:46;32.10;50.70
18575;DHT22;9417;16.484;102.872;2022-11-21T06:05:09;32.10;49.50
18575;DHT22;9417;16.484;102.872;2022-11-21T06:07:17;32.00;49.90
18575;DHT22;9417;16.484;102.872;2022-11-21T06:09:24;32.00;50.40
18575;DHT22;9417;16.484;102.872;2022-11-21T06:11:31;32.10;50.00
18575;DHT22;9417;16.484;102.872;2022-11-21T06:13:40;32.10;50.20
18575;DHT22;9417;16.484;102.872;2022-11-21T06:15:49;32.10;51.00
18575;DHT22;9417;16.484;102.872;2022-11-21T06:17:56;32.10;52.10
18575;DHT22;9417;16.484;102.872;2022-11-21T06:20:06;32.20;51.90
18575;DHT22;9417;16.484;102.872;2022-11-21T06:22:13;32.20;52.70
18575;DHT22;9417;16.484;102.872;2022-11-21T06:24:20;32.30;52.50
18575;DHT22;9417;16.484;102.872;2022-11-21T06:26:28;32.30;50.90
18575;DHT22;9417;16.484;102.872;2022-11-21T06:28:38;32.30;49.90
18575;DHT22;9417;16.484;102.872;2022-11-21T06:30:47;32.30;50.30
18575;DHT22;9417;16.484;102.872;2022-11-21T06:32:55;32.30;50.00
18575;DHT22;9417;16.484;102.872;2022-11-21T06:35:03;32.30;50.10
18575;DHT22;9417;16.484;102.872;2022-11-21T06:37:10;32.30;49.90
18575;DHT22;9417;16.484;102.872;2022-11-21T06:39:17;32.30;49.90
18575;DHT22;9417;16.484;102.872;2022-11-21T06:41:25;32.40;50.20
18575;DHT22;9417;16.484;102.872;2022-11-21T06:43:34;32.50;49.70
18575;DHT22;9417;16.484;102.872;2022-11-21T06:45:41;32.50;49.50
18575;DHT22;9417;16.484;102.872;2022-11-21T06:47:51;32.50;49.30
18575;DHT22;9417;16.484;102.872;2022-11-21T06:49:58;32.50;49.40
18575;DHT22;9417;16.484;102.872;2022-11-21T06:52:05;32.40;48.90
18575;DHT22;9417;16.484;102.872;2022-11-21T06:54:12;32.30;49.30
18575;DHT22;9417;16.484;102.872;2022-11-21T06:56:19;32.30;49.70
18575;DHT22;9417;16.484;102.872;2022-11-21T06:58:27;32.40;50.00
18575;DHT22;9417;16.484;102.872;2022-11-21T07:00:34;32.50;50.00
18575;DHT22;9417;16.484;102.872;2022-11-21T07:02:41;32.50;49.70
18575;DHT22;9417;16.484;102.872;2022-11-21T07:04:50;32.60;50.30
18575;DHT22;9417;16.484;102.872;2022-11-21T07:06:57;32.60;50.10
18575;DHT22;9417;16.484;102.872;2022-11-21T07:09:04;32.60;50.20
18575;DHT22;9417;16.484;102.872;2022-11-21T07:11:33;32.60;50.90
18575;DHT22;9417;16.484;102.872;2022-11-21T07:13:42;32.60;48.10
18575;DHT22;9417;16.484;102.872;2022-11-21T07:15:49;32.40;49.30
18575;DHT22;9417;16.484;102.872;2022-11-21T07:17:58;32.40;49.80
18575;DHT22;9417;16.484;102.872;2022-11-21T07:20:08;32.50;49.40
18575;DHT22;9417;16.484;102.872;2022-11-21T07:22:15;32.50;50.00
18575;DHT22;9417;16.484;102.872;2022-11-21T07:24:23;32.50;49.70
18575;DHT22;9417;16.484;102.872;2022-11-21T07:26:30;32.50;49.50
18575;DHT22;9417;16.484;102.872;2022-11-21T07:28:37;32.40;48.40
18575;DHT22;9417;16.484;102.872;2022-11-21T07:30:44;32.30;49.70
18575;DHT22;9417;16.484;102.872;2022-11-21T07:32:55;32.10;49.40
18575;DHT22;9417;16.484;102.872;2022-11-21T07:35:02;32.10;48.90
18575;DHT22;9417;16.484;102.872;2022-11-21T07:37:11;32.10;49.60
18575;DHT22;9417;16.484;102.872;2022-11-21T07:39:19;32.10;50.60
18575;DHT22;9417;16.484;102.872;2022-11-21T07:41:26;32.10;48.80
18575;DHT22;9417;16.484;102.872;2022-11-21T07:43:33;32.10;48.00
18575;DHT22;9417;16.484;102.872;2022-11-21T07:45:40;32.20;48.70
18575;DHT22;9417;16.484;102.872;2022-11-21T07:47:47;32.10;48.70
18575;DHT22;9417;16.484;102.872;2022-11-21T07:50:03;32.10;49.20
18575;DHT22;9417;16.484;102.872;2022-11-21T07:52:12;32.00;48.70
18575;DHT22;9417;16.484;102.872;2022-11-21T07:54:19;32.00;49.10
18575;DHT22;9417;16.484;102.872;2022-11-21T07:56:30;32.00;48.30
18575;DHT22;9417;16.484;102.872;2022-11-21T07:58:37;32.10;49.20
18575;DHT22;9417;16.484;102.872;2022-11-21T08:00:44;32.10;49.40
18575;DHT22;9417;16.484;102.872;2022-11-21T08:02:52;32.20;49.00
18575;DHT22;9417;16.484;102.872;2022-11-21T08:05:00;32.20;49.40
18575;DHT22;9417;16.484;102.872;2022-11-21T08:07:09;32.20;49.70
18575;DHT22;9417;16.484;102.872;2022-11-21T08:09:18;32.20;49.40
18575;DHT22;9417;16.484;102.872;2022-11-21T08:11:25;32.10;49.70
18575;DHT22;9417;16.484;102.872;2022-11-21T08:13:32;32.10;49.70
18575;DHT22;9417;16.484;102.872;2022-11-21T08:15:40;32.10;50.10
18575;DHT22;9417;16.484;102.872;2022-11-21T08:17:47;32.00;50.30
18575;DHT22;9417;16.484;102.872;2022-11-21T08:19:54;31.90;50.20
18575;DHT22;9417;16.484;102.872;2022-11-21T08:22:02;31.90;50.30
18575;DHT22;9417;16.484;102.872;2022-11-21T08:24:09;31.90;50.20
18575;DHT22;9417;16.484;102.872;2022-11-21T08:26:20;31.80;51.40
18575;DHT22;9417;16.484;102.872;2022-11-21T08:28:27;31.80;51.30
18575;DHT22;9417;16.484;102.872;2022-11-21T08:30:36;31.80;51.00
18575;DHT22;9417;16.484;102.872;2022-11-21T08:32:43;31.70;50.70
18575;DHT22;9417;16.484;102.872;2022-11-21T08:34:49;31.60;50.70
18575;DHT22;9417;16.484;102.872;2022-11-21T08:36:56;31.60;51.50
18575;DHT22;9417;16.484;102.872;2022-11-21T08:39:04;31.50;52.00
18575;DHT22;9417;16.484;102.872;2022-11-21T08:41:12;31.50;51.20
18575;DHT22;9417;16.484;102.872;2022-11-21T08:43:49;31.40;51.80
18575;DHT22;9417;16.484;102.872;2022-11-21T08:45:56;31.40;51.60
18575;DHT22;9417;16.484;102.872;2022-11-21T08:48:07;31.40;51.60
18575;DHT22;9417;16.484;102.872;2022-11-21T08:50:15;31.40;52.00
18575;DHT22;9417;16.484;102.872;2022-11-21T08:52:22;31.40;52.00
18575;DHT22;9417;16.484;102.872;2022-11-21T08:54:29;31.30;51.80
18575;DHT22;9417;16.484;102.872;2022-11-21T08:56:36;31.30;52.40
18575;DHT22;9417;16.484;102.872;2022-11-21T08:58:43;31.30;52.60
18575;DHT22;9417;16.484;102.872;2022-11-21T09:00:52;31.40;52.80
18575;DHT22;9417;16.484;102.872;2022-11-21T09:03:03;31.40;52.20
18575;DHT22;9417;16.484;102.872;2022-11-21T09:05:11;31.40;52.40
18575;DHT22;9417;16.484;102.872;2022-11-21T09:07:18;31.40;52.90
18575;DHT22;9417;16.484;102.872;2022-11-21T09:09:25;31.40;53.40
18575;DHT22;9417;16.484;102.872;2022-11-21T09:11:32;31.50;53.60
18575;DHT22;9417;16.484;102.872;2022-11-21T09:13:39;31.40;52.20
18575;DHT22;9417;16.484;102.872;2022-11-21T09:15:46;31.40;52.60
18575;DHT22;9417;16.484;102.872;2022-11-21T09:18:09;31.40;52.70
18575;DHT22;9417;16.484;102.872;2022-11-21T09:20:15;31.40;52.60
18575;DHT22;9417;16.484;102.872;2022-11-21T09:22:24;31.40;52.80
18575;DHT22;9417;16.484;102.872;2022-11-21T09:24:31;31.30;52.80
18575;DHT22;9417;16.484;102.872;2022-11-21T09:26:38;31.30;52.70
18575;DHT22;9417;16.484;102.872;2022-11-21T09:28:45;31.30;53.00
18575;DHT22;9417;16.484;102.872;2022-11-21T09:30:52;31.40;53.30
18575;DHT22;9417;16.484;102.872;2022-11-21T09:33:00;31.40;53.60
18575;DHT22;9417;16.484;102.872;2022-11-21T09:35:09;31.40;51.60
18575;DHT22;9417;16.484;102.872;2022-11-21T09:37:16;31.30;52.30
18575;DHT22;9417;16.484;102.872;2022-11-21T09:39:23;31.30;52.50
18575;DHT22;9417;16.484;102.872;2022-11-21T09:41:36;31.30;53.00
18575;DHT22;9417;16.484;102.872;2022-11-21T09:44:03;31.30;52.80
18575;DHT22;9417;16.484;102.872;2022-11-21T09:46:14;31.20;52.80
18575;DHT22;9417;16.484;102.872;2022-11-21T09:48:27;31.20;53.10
18575;DHT22;9417;16.484;102.872;2022-11-21T09:50:40;31.20;53.00
18575;DHT22;9417;16.484;102.872;2022-11-21T09:53:00;31.20;53.30
18575;DHT22;9417;16.484;102.872;2022-11-21T09:55:20;31.10;53.00
18575;DHT22;9417;16.484;102.872;2022-11-21T09:57:31;31.10;53.10
18575;DHT22;9417;16.484;102.872;2022-11-21T09:59:39;31.00;53.70
18575;DHT22;9417;16.484;102.872;2022-11-21T10:01:47;31.00;53.70
18575;DHT22;9417;16.484;102.872;2022-11-21T10:03:54;31.00;53.90
18575;DHT22;9417;16.484;102.872;2022-11-21T10:06:04;30.90;54.30
18575;DHT22;9417;16.484;102.872;2022-11-21T10:08:23;30.90;55.30
18575;DHT22;9417;16.484;102.872;2022-11-21T10:10:42;30.80;56.10
18575;DHT22;9417;16.484;102.872;2022-11-21T10:13:05;30.80;58.00
18575;DHT22;9417;16.484;102.872;2022-11-21T10:15:28;30.70;58.90
18575;DHT22;9417;16.484;102.872;2022-11-21T10:17:45;30.60;60.70
18575;DHT22;9417;16.484;102.872;2022-11-21T10:20:13;30.50;62.90
18575;DHT22;9417;16.484;102.872;2022-11-21T10:22:35;30.30;64.60
18575;DHT22;9417;16.484;102.872;2022-11-21T10:24:50;30.20;65.00
18575;DHT22;9417;16.484;102.872;2022-11-21T10:27:01;30.10;64.90
18575;DHT22;9417;16.484;102.872;2022-11-21T10:29:13;30.00;65.30
18575;DHT22;9417;16.484;102.872;2022-11-21T10:31:22;29.90;65.80
18575;DHT22;9417;16.484;102.872;2022-11-21T10:33:32;29.80;65.10
18575;DHT22;9417;16.484;102.872;2022-11-21T10:35:42;29.80;64.10
18575;DHT22;9417;16.484;102.872;2022-11-21T10:37:54;29.80;63.50
18575;DHT22;9417;16.484;102.872;2022-11-21T10:40:12;29.70;63.60
18575;DHT22;9417;16.484;102.872;2022-11-21T10:42:29;29.60;65.50
18575;DHT22;9417;16.484;102.872;2022-11-21T10:44:36;29.60;67.30
18575;DHT22;9417;16.484;102.872;2022-11-21T10:47:00;29.50;67.60
18575;DHT22;9417;16.484;102.872;2022-11-21T10:49:12;29.30;68.60
18575;DHT22;9417;16.484;102.872;2022-11-21T10:51:29;29.20;69.50
18575;DHT22;9417;16.484;102.872;2022-11-21T10:53:42;29.10;68.50
18575;DHT22;9417;16.484;102.872;2022-11-21T10:56:12;29.00;68.20
18575;DHT22;9417;16.484;102.872;2022-11-21T10:58:33;28.90;68.20
18575;DHT22;9417;16.484;102.872;2022-11-21T11:00:56;28.80;68.00
18575;DHT22;9417;16.484;102.872;2022-11-21T11:03:06;28.80;70.60
18575;DHT22;9417;16.484;102.872;2022-11-21T11:05:20;28.70;71.10
18575;DHT22;9417;16.484;102.872;2022-11-21T11:07:32;28.70;72.40
18575;DHT22;9417;16.484;102.872;2022-11-21T11:09:41;28.60;73.00
18575;DHT22;9417;16.484;102.872;2022-11-21T11:11:51;28.50;72.60
18575;DHT22;9417;16.484;102.872;2022-11-21T11:14:00;28.50;73.10
18575;DHT22;9417;16.484;102.872;2022-11-21T11:16:15;28.50;73.30
18575;DHT22;9417;16.484;102.872;2022-11-21T11:18:23;28.40;73.60
18575;DHT22;9417;16.484;102.872;2022-11-21T11:20:36;28.40;72.30
18575;DHT22;9417;16.484;102.872;2022-11-21T11:22:43;28.30;73.40
18575;DHT22;9417;16.484;102.872;2022-11-21T11:24:54;28.20;72.10
18575;DHT22;9417;16.484;102.872;2022-11-21T11:27:03;28.20;71.60
18575;DHT22;9417;16.484;102.872;2022-11-21T11:29:14;28.20;73.70
18575;DHT22;9417;16.484;102.872;2022-11-21T11:31:22;28.10;72.60
18575;DHT22;9417;16.484;102.872;2022-11-21T11:33:33;28.00;72.30
18575;DHT22;9417;16.484;102.872;2022-11-21T11:35:42;27.90;72.00
18575;DHT22;9417;16.484;102.872;2022-11-21T11:37:58;27.90;72.20
18575;DHT22;9417;16.484;102.872;2022-11-21T11:40:18;27.80;73.00
18575;DHT22;9417;16.484;102.872;2022-11-21T11:42:52;27.80;74.90
18575;DHT22;9417;16.484;102.872;2022-11-21T11:45:33;27.80;75.20
18575;DHT22;9417;16.484;102.872;2022-11-21T11:48:06;27.80;76.10
18575;DHT22;9417;16.484;102.872;2022-11-21T11:50:17;27.70;76.50
18575;DHT22;9417;16.484;102.872;2022-11-21T11:52:29;27.70;76.50
18575;DHT22;9417;16.484;102.872;2022-11-21T11:54:44;27.70;76.30
18575;DHT22;9417;16.484;102.872;2022-11-21T11:56:55;27.70;76.80
18575;DHT22;9417;16.484;102.872;2022-11-21T11:59:09;27.60;76.50
18575;DHT22;9417;16.484;102.872;2022-11-21T12:01:20;27.70;76.20
18575;DHT22;9417;16.484;102.872;2022-11-21T12:03:37;27.60;75.50
18575;DHT22;9417;16.484;102.872;2022-11-21T12:06:00;27.60;76.10
18575;DHT22;9417;16.484;102.872;2022-11-21T12:08:16;27.60;77.30
18575;DHT22;9417;16.484;102.872;2022-11-21T12:10:50;27.60;77.60
18575;DHT22;9417;16.484;102.872;2022-11-21T12:13:29;27.50;77.50
18575;DHT22;9417;16.484;102.872;2022-11-21T12:15:40;27.50;77.50
18575;DHT22;9417;16.484;102.872;2022-11-21T12:18:06;27.50;77.50
18575;DHT22;9417;16.484;102.872;2022-11-21T12:20:18;27.50;77.70
18575;DHT22;9417;16.484;102.872;2022-11-21T12:22:26;27.40;77.50
18575;DHT22;9417;16.484;102.872;2022-11-21T12:24:34;27.40;76.90
18575;DHT22;9417;16.484;102.872;2022-11-21T12:26:55;27.40;77.30
18575;DHT22;9417;16.484;102.872;2022-11-21T12:29:22;27.40;77.60
18575;DHT22;9417;16.484;102.872;2022-11-21T12:31:39;27.30;77.60
18575;DHT22;9417;16.484;102.872;2022-11-21T12:33:57;27.30;77.20
18575;DHT22;9417;16.484;102.872;2022-11-21T12:36:16;27.30;76.80
18575;DHT22;9417;16.484;102.872;2022-11-21T12:38:42;27.20;76.30
18575;DHT22;9417;16.484;102.872;2022-11-21T12:41:01;27.20;76.20
18575;DHT22;9417;16.484;102.872;2022-11-21T12:43:36;27.10;76.40
18575;DHT22;9417;16.484;102.872;2022-11-21T12:45:51;27.10;77.20
18575;DHT22;9417;16.484;102.872;2022-11-21T12:48:13;27.00;77.30
18575;DHT22;9417;16.484;102.872;2022-11-21T12:50:46;27.00;78.40
18575;DHT22;9417;16.484;102.872;2022-11-21T12:53:21;26.90;78.30
18575;DHT22;9417;16.484;102.872;2022-11-21T12:55:54;26.90;78.80
18575;DHT22;9417;16.484;102.872;2022-11-21T12:58:04;26.90;78.00
18575;DHT22;9417;16.484;102.872;2022-11-21T13:00:14;26.80;79.10
18575;DHT22;9417;16.484;102.872;2022-11-21T13:02:31;26.80;78.60
18575;DHT22;9417;16.484;102.872;2022-11-21T13:04:41;26.80;79.00
18575;DHT22;9417;16.484;102.872;2022-11-21T13:06:50;26.70;78.10
18575;DHT22;9417;16.484;102.872;2022-11-21T13:08:59;26.70;77.90
18575;DHT22;9417;16.484;102.872;2022-11-21T13:11:10;26.70;78.10
18575;DHT22;9417;16.484;102.872;2022-11-21T13:13:36;26.70;78.30
18575;DHT22;9417;16.484;102.872;2022-11-21T13:15:53;26.60;78.50
18575;DHT22;9417;16.484;102.872;2022-11-21T13:18:15;26.50;78.70
18575;DHT22;9417;16.484;102.872;2022-11-21T13:20:28;26.50;78.90
18575;DHT22;9417;16.484;102.872;2022-11-21T13:22:54;26.50;79.40
18575;DHT22;9417;16.484;102.872;2022-11-21T13:25:03;26.50;80.00
18575;DHT22;9417;16.484;102.872;2022-11-21T13:27:25;26.50;79.90
18575;DHT22;9417;16.484;102.872;2022-11-21T13:30:16;26.40;80.00
18575;DHT22;9417;16.484;102.872;2022-11-21T13:32:39;26.40;80.70